<?xml version="1.0" encoding="UTF-8" standalone="no" ?>
<gpx xmlns="http://www.topografix.com/GPX/1/1" xmlns:xsi="http://www.w3.org/2001/XMLSchema-instance" xsi:schemaLocation="http://www.topografix.com/GPX/1/1 http://www.topografix.com/GPX/1/1/gpx.xsd" version="1.1" creator="VisuGPX - https://www.visugpx.com">
  <metadata>
    <name>Tour du Cap d'Antibes</name>
  </metadata>
  <trk>
    <name><![CDATA[Tour du Cap d'Antibes_1]]></name>
    <trkseg>
      <trkpt lat="43.57152" lon="7.09738">
        <ele>3.8</ele>
        <time>2020-10-17T12:27:54.000Z</time>
      </trkpt>
      <trkpt lat="43.57185" lon="7.09916">
        <ele>6.6</ele>
        <time>2020-10-17T12:30:49.858Z</time>
      </trkpt>
      <trkpt lat="43.57166" lon="7.10291">
        <ele>9.5</ele>
        <time>2020-10-17T12:36:11.728Z</time>
      </trkpt>
      <trkpt lat="43.57156" lon="7.10418">
        <ele>10.4</ele>
        <time>2020-10-17T12:38:00.094Z</time>
      </trkpt>
      <trkpt lat="43.57064" lon="7.10399">
        <ele>10</ele>
        <time>2020-10-17T12:39:33.176Z</time>
      </trkpt>
      <trkpt lat="43.56784" lon="7.11125">
        <ele>6.8</ele>
        <time>2020-10-17T12:49:20.408Z</time>
      </trkpt>
      <trkpt lat="43.56783" lon="7.11291">
        <ele>8.8</ele>
        <time>2020-10-17T12:51:51.741Z</time>
      </trkpt>
      <trkpt lat="43.56624" lon="7.11585">
        <ele>15.9</ele>
        <time>2020-10-17T12:58:07.076Z</time>
      </trkpt>
      <trkpt lat="43.56518" lon="7.11568">
        <ele>12.7</ele>
        <time>2020-10-17T12:58:38.249Z</time>
      </trkpt>
      <trkpt lat="43.56413" lon="7.116">
        <ele>10.6</ele>
        <time>2020-10-17T12:59:13.533Z</time>
      </trkpt>
      <trkpt lat="43.56326" lon="7.11733">
        <ele>6.4</ele>
        <time>2020-10-17T12:59:50.542Z</time>
      </trkpt>
      <trkpt lat="43.56245" lon="7.11778">
        <ele>5.6</ele>
        <time>2020-10-17T13:00:23.185Z</time>
      </trkpt>
      <trkpt lat="43.56161" lon="7.11824">
        <ele>4.1</ele>
        <time>2020-10-17T13:00:53.902Z</time>
      </trkpt>
      <trkpt lat="43.55992" lon="7.12163">
        <ele>7.8</ele>
        <time>2020-10-17T13:06:52.697Z</time>
      </trkpt>
      <trkpt lat="43.55818" lon="7.12195">
        <ele>7.6</ele>
        <time>2020-10-17T13:09:56.703Z</time>
      </trkpt>
      <trkpt lat="43.55729" lon="7.12226">
        <ele>8</ele>
        <time>2020-10-17T13:11:38.673Z</time>
      </trkpt>
      <trkpt lat="43.55597" lon="7.12133">
        <ele>6.7</ele>
        <time>2020-10-17T13:12:34.373Z</time>
      </trkpt>
      <trkpt lat="43.55523" lon="7.12125">
        <ele>6.2</ele>
        <time>2020-10-17T13:13:46.133Z</time>
      </trkpt>
      <trkpt lat="43.55484" lon="7.1223">
        <ele>5.9</ele>
        <time>2020-10-17T13:15:12.677Z</time>
      </trkpt>
      <trkpt lat="43.55439" lon="7.12243">
        <ele>4.8</ele>
        <time>2020-10-17T13:15:27.020Z</time>
      </trkpt>
      <trkpt lat="43.55385" lon="7.12248">
        <ele>5.2</ele>
        <time>2020-10-17T13:16:28.934Z</time>
      </trkpt>
      <trkpt lat="43.55321" lon="7.12207">
        <ele>5.4</ele>
        <time>2020-10-17T13:17:46.196Z</time>
      </trkpt>
      <trkpt lat="43.55249" lon="7.12231">
        <ele>6.4</ele>
        <time>2020-10-17T13:19:16.344Z</time>
      </trkpt>
      <trkpt lat="43.55184" lon="7.1214">
        <ele>5.6</ele>
        <time>2020-10-17T13:19:51.207Z</time>
      </trkpt>
      <trkpt lat="43.55123" lon="7.12113">
        <ele>7.4</ele>
        <time>2020-10-17T13:21:23.210Z</time>
      </trkpt>
      <trkpt lat="43.55103" lon="7.1208">
        <ele>7.4</ele>
        <time>2020-10-17T13:21:56.462Z</time>
      </trkpt>
      <trkpt lat="43.55098" lon="7.11977">
        <ele>8</ele>
        <time>2020-10-17T13:23:22.585Z</time>
      </trkpt>
      <trkpt lat="43.55106" lon="7.11937">
        <ele>8</ele>
        <time>2020-10-17T13:23:54.660Z</time>
      </trkpt>
      <trkpt lat="43.55027" lon="7.11874">
        <ele>9.5</ele>
        <time>2020-10-17T13:25:49.229Z</time>
      </trkpt>
      <trkpt lat="43.54934" lon="7.11823">
        <ele>12.2</ele>
        <time>2020-10-17T13:28:10.999Z</time>
      </trkpt>
      <trkpt lat="43.5493" lon="7.11845">
        <ele>15.2</ele>
        <time>2020-10-17T13:29:18.627Z</time>
      </trkpt>
      <trkpt lat="43.54955" lon="7.11892">
        <ele>15.3</ele>
        <time>2020-10-17T13:30:04.691Z</time>
      </trkpt>
      <trkpt lat="43.54971" lon="7.11928">
        <ele>17.2</ele>
        <time>2020-10-17T13:31:06.676Z</time>
      </trkpt>
      <trkpt lat="43.54948" lon="7.11971">
        <ele>19.3</ele>
        <time>2020-10-17T13:32:20.962Z</time>
      </trkpt>
      <trkpt lat="43.54923" lon="7.12027">
        <ele>20.8</ele>
        <time>2020-10-17T13:33:32.391Z</time>
      </trkpt>
      <trkpt lat="43.54896" lon="7.12094">
        <ele>23.9</ele>
        <time>2020-10-17T13:35:20.098Z</time>
      </trkpt>
      <trkpt lat="43.54881" lon="7.12198">
        <ele>25.6</ele>
        <time>2020-10-17T13:37:02.895Z</time>
      </trkpt>
      <trkpt lat="43.54891" lon="7.12252">
        <ele>27.4</ele>
        <time>2020-10-17T13:38:15.636Z</time>
      </trkpt>
      <trkpt lat="43.54928" lon="7.12329">
        <ele>28.8</ele>
        <time>2020-10-17T13:39:43.968Z</time>
      </trkpt>
      <trkpt lat="43.55045" lon="7.12557">
        <ele>28.5</ele>
        <time>2020-10-17T13:43:15.122Z</time>
      </trkpt>
      <trkpt lat="43.55132" lon="7.12795">
        <ele>32.9</ele>
        <time>2020-10-17T13:47:35.484Z</time>
      </trkpt>
      <trkpt lat="43.55192" lon="7.12883">
        <ele>34.6</ele>
        <time>2020-10-17T13:49:29.076Z</time>
      </trkpt>
      <trkpt lat="43.55087" lon="7.12898">
        <ele>36.7</ele>
        <time>2020-10-17T13:51:46.748Z</time>
      </trkpt>
      <trkpt lat="43.54956" lon="7.12982">
        <ele>37.3</ele>
        <time>2020-10-17T13:54:26.909Z</time>
      </trkpt>
      <trkpt lat="43.54804" lon="7.12995">
        <ele>32.2</ele>
        <time>2020-10-17T13:55:09.819Z</time>
      </trkpt>
      <trkpt lat="43.54751" lon="7.12999">
        <ele>28.2</ele>
        <time>2020-10-17T13:55:22.039Z</time>
      </trkpt>
      <trkpt lat="43.54659" lon="7.12967">
        <ele>13.1</ele>
        <time>2020-10-17T13:55:43.881Z</time>
      </trkpt>
      <trkpt lat="43.54623" lon="7.12977">
        <ele>13.4</ele>
        <time>2020-10-17T13:56:26.215Z</time>
      </trkpt>
      <trkpt lat="43.54544" lon="7.12943">
        <ele>9.9</ele>
        <time>2020-10-17T13:56:47.623Z</time>
      </trkpt>
      <trkpt lat="43.54508" lon="7.12971">
        <ele>11.2</ele>
        <time>2020-10-17T13:57:49.540Z</time>
      </trkpt>
      <trkpt lat="43.54435" lon="7.12962">
        <ele>8.6</ele>
        <time>2020-10-17T13:58:09.783Z</time>
      </trkpt>
      <trkpt lat="43.54419" lon="7.1295">
        <ele>8.5</ele>
        <time>2020-10-17T13:58:27.699Z</time>
      </trkpt>
      <trkpt lat="43.54387" lon="7.12975">
        <ele>7</ele>
        <time>2020-10-17T13:58:37.347Z</time>
      </trkpt>
      <trkpt lat="43.54388" lon="7.13014">
        <ele>7</ele>
        <time>2020-10-17T13:59:07.516Z</time>
      </trkpt>
      <trkpt lat="43.54424" lon="7.1307">
        <ele>9</ele>
        <time>2020-10-17T14:00:34.881Z</time>
      </trkpt>
      <trkpt lat="43.54438" lon="7.13119">
        <ele>9.9</ele>
        <time>2020-10-17T14:01:26.812Z</time>
      </trkpt>
      <trkpt lat="43.5446" lon="7.13154">
        <ele>10.7</ele>
        <time>2020-10-17T14:02:12.623Z</time>
      </trkpt>
      <trkpt lat="43.5448" lon="7.13201">
        <ele>9.9</ele>
        <time>2020-10-17T14:02:25.476Z</time>
      </trkpt>
      <trkpt lat="43.54452" lon="7.13242">
        <ele>8</ele>
        <time>2020-10-17T14:02:35.639Z</time>
      </trkpt>
      <trkpt lat="43.5444" lon="7.13276">
        <ele>8</ele>
        <time>2020-10-17T14:03:04.873Z</time>
      </trkpt>
      <trkpt lat="43.54458" lon="7.13364">
        <ele>9.6</ele>
        <time>2020-10-17T14:04:35.629Z</time>
      </trkpt>
      <trkpt lat="43.54472" lon="7.1348">
        <ele>7.8</ele>
        <time>2020-10-17T14:05:03.085Z</time>
      </trkpt>
      <trkpt lat="43.54498" lon="7.13566">
        <ele>4.6</ele>
        <time>2020-10-17T14:05:19.769Z</time>
      </trkpt>
      <trkpt lat="43.54515" lon="7.13632">
        <ele>7.6</ele>
        <time>2020-10-17T14:07:00.446Z</time>
      </trkpt>
      <trkpt lat="43.54546" lon="7.13682">
        <ele>7</ele>
        <time>2020-10-17T14:07:17.492Z</time>
      </trkpt>
      <trkpt lat="43.54579" lon="7.13729">
        <ele>5.8</ele>
        <time>2020-10-17T14:07:32.064Z</time>
      </trkpt>
      <trkpt lat="43.54605" lon="7.13761">
        <ele>4.7</ele>
        <time>2020-10-17T14:07:42.075Z</time>
      </trkpt>
      <trkpt lat="43.5468" lon="7.13808">
        <ele>3.8</ele>
        <time>2020-10-17T14:08:12.158Z</time>
      </trkpt>
      <trkpt lat="43.54708" lon="7.13821">
        <ele>3.7</ele>
        <time>2020-10-17T14:08:42.113Z</time>
      </trkpt>
      <trkpt lat="43.5473" lon="7.138">
        <ele>4</ele>
        <time>2020-10-17T14:09:13.911Z</time>
      </trkpt>
      <trkpt lat="43.54772" lon="7.13774">
        <ele>4.5</ele>
        <time>2020-10-17T14:10:08.433Z</time>
      </trkpt>
      <trkpt lat="43.54823" lon="7.13727">
        <ele>6.3</ele>
        <time>2020-10-17T14:11:37.894Z</time>
      </trkpt>
      <trkpt lat="43.5486" lon="7.13735">
        <ele>9.2</ele>
        <time>2020-10-17T14:13:03.043Z</time>
      </trkpt>
      <trkpt lat="43.54879" lon="7.13761">
        <ele>7.8</ele>
        <time>2020-10-17T14:13:09.376Z</time>
      </trkpt>
      <trkpt lat="43.54907" lon="7.13793">
        <ele>8.2</ele>
        <time>2020-10-17T14:13:52.499Z</time>
      </trkpt>
      <trkpt lat="43.54905" lon="7.13854">
        <ele>6.4</ele>
        <time>2020-10-17T14:14:04.123Z</time>
      </trkpt>
      <trkpt lat="43.54932" lon="7.13869">
        <ele>10.7</ele>
        <time>2020-10-17T14:16:03.862Z</time>
      </trkpt>
      <trkpt lat="43.54957" lon="7.13871">
        <ele>12.2</ele>
        <time>2020-10-17T14:16:53.802Z</time>
      </trkpt>
      <trkpt lat="43.54975" lon="7.13916">
        <ele>13.2</ele>
        <time>2020-10-17T14:17:46.488Z</time>
      </trkpt>
      <trkpt lat="43.54983" lon="7.13976">
        <ele>12.3</ele>
        <time>2020-10-17T14:18:00.857Z</time>
      </trkpt>
      <trkpt lat="43.54983" lon="7.14019">
        <ele>11.6</ele>
        <time>2020-10-17T14:18:10.742Z</time>
      </trkpt>
      <trkpt lat="43.54997" lon="7.14053">
        <ele>9.8</ele>
        <time>2020-10-17T14:18:16.866Z</time>
      </trkpt>
      <trkpt lat="43.5502" lon="7.14113">
        <ele>10</ele>
        <time>2020-10-17T14:19:11.363Z</time>
      </trkpt>
      <trkpt lat="43.55028" lon="7.14131">
        <ele>10</ele>
        <time>2020-10-17T14:19:27.684Z</time>
      </trkpt>
      <trkpt lat="43.55062" lon="7.14122">
        <ele>10.9</ele>
        <time>2020-10-17T14:20:16.148Z</time>
      </trkpt>
      <trkpt lat="43.55097" lon="7.14131">
        <ele>15.6</ele>
        <time>2020-10-17T14:22:39.662Z</time>
      </trkpt>
      <trkpt lat="43.55126" lon="7.14163">
        <ele>16.5</ele>
        <time>2020-10-17T14:23:30.568Z</time>
      </trkpt>
      <trkpt lat="43.55149" lon="7.14196">
        <ele>14.7</ele>
        <time>2020-10-17T14:23:38.293Z</time>
      </trkpt>
      <trkpt lat="43.55155" lon="7.14228">
        <ele>13</ele>
        <time>2020-10-17T14:23:43.808Z</time>
      </trkpt>
      <trkpt lat="43.55177" lon="7.14245">
        <ele>15.3</ele>
        <time>2020-10-17T14:24:48.229Z</time>
      </trkpt>
      <trkpt lat="43.55185" lon="7.1429">
        <ele>13.2</ele>
        <time>2020-10-17T14:24:55.540Z</time>
      </trkpt>
      <trkpt lat="43.552" lon="7.14335">
        <ele>9.8</ele>
        <time>2020-10-17T14:25:03.804Z</time>
      </trkpt>
      <trkpt lat="43.55208" lon="7.14387">
        <ele>9.3</ele>
        <time>2020-10-17T14:25:17.505Z</time>
      </trkpt>
      <trkpt lat="43.55231" lon="7.14432">
        <ele>6</ele>
        <time>2020-10-17T14:25:26.692Z</time>
      </trkpt>
      <trkpt lat="43.55292" lon="7.14402">
        <ele>8.6</ele>
        <time>2020-10-17T14:27:15.935Z</time>
      </trkpt>
      <trkpt lat="43.55318" lon="7.14342">
        <ele>7.8</ele>
        <time>2020-10-17T14:27:33.326Z</time>
      </trkpt>
      <trkpt lat="43.55331" lon="7.14269">
        <ele>13.5</ele>
        <time>2020-10-17T14:30:11.561Z</time>
      </trkpt>
      <trkpt lat="43.55416" lon="7.14247">
        <ele>4.8</ele>
        <time>2020-10-17T14:30:31.471Z</time>
      </trkpt>
      <trkpt lat="43.55446" lon="7.14247">
        <ele>4.5</ele>
        <time>2020-10-17T14:30:42.561Z</time>
      </trkpt>
      <trkpt lat="43.55471" lon="7.14241">
        <ele>4</ele>
        <time>2020-10-17T14:30:50.871Z</time>
      </trkpt>
      <trkpt lat="43.55475" lon="7.14161">
        <ele>9.2</ele>
        <time>2020-10-17T14:33:17.065Z</time>
      </trkpt>
      <trkpt lat="43.55494" lon="7.14063">
        <ele>8</ele>
        <time>2020-10-17T14:33:42.138Z</time>
      </trkpt>
      <trkpt lat="43.55527" lon="7.13977">
        <ele>6.8</ele>
        <time>2020-10-17T14:34:05.986Z</time>
      </trkpt>
      <trkpt lat="43.55529" lon="7.13958">
        <ele>6.8</ele>
        <time>2020-10-17T14:34:20.826Z</time>
      </trkpt>
      <trkpt lat="43.555" lon="7.13885">
        <ele>7.8</ele>
        <time>2020-10-17T14:35:36.689Z</time>
      </trkpt>
      <trkpt lat="43.55471" lon="7.13825">
        <ele>5.4</ele>
        <time>2020-10-17T14:35:49.769Z</time>
      </trkpt>
      <trkpt lat="43.55443" lon="7.13775">
        <ele>4.9</ele>
        <time>2020-10-17T14:36:06.495Z</time>
      </trkpt>
      <trkpt lat="43.55419" lon="7.13742">
        <ele>4.7</ele>
        <time>2020-10-17T14:36:39.633Z</time>
      </trkpt>
      <trkpt lat="43.55409" lon="7.13729">
        <ele>6</ele>
        <time>2020-10-17T14:37:15.841Z</time>
      </trkpt>
      <trkpt lat="43.55407" lon="7.13675">
        <ele>5.2</ele>
        <time>2020-10-17T14:37:28.567Z</time>
      </trkpt>
      <trkpt lat="43.55426" lon="7.13588">
        <ele>4.9</ele>
        <time>2020-10-17T14:38:34.218Z</time>
      </trkpt>
      <trkpt lat="43.55451" lon="7.13539">
        <ele>5.8</ele>
        <time>2020-10-17T14:39:31.388Z</time>
      </trkpt>
      <trkpt lat="43.55476" lon="7.13527">
        <ele>5.6</ele>
        <time>2020-10-17T14:39:41.502Z</time>
      </trkpt>
      <trkpt lat="43.55502" lon="7.13485">
        <ele>5.7</ele>
        <time>2020-10-17T14:40:25.197Z</time>
      </trkpt>
      <trkpt lat="43.55514" lon="7.13426">
        <ele>7.8</ele>
        <time>2020-10-17T14:41:46.570Z</time>
      </trkpt>
      <trkpt lat="43.55509" lon="7.13356">
        <ele>10.9</ele>
        <time>2020-10-17T14:43:28.884Z</time>
      </trkpt>
      <trkpt lat="43.55514" lon="7.13347">
        <ele>11.1</ele>
        <time>2020-10-17T14:43:40.164Z</time>
      </trkpt>
      <trkpt lat="43.55582" lon="7.13414">
        <ele>8.3</ele>
        <time>2020-10-17T14:44:03.701Z</time>
      </trkpt>
      <trkpt lat="43.55645" lon="7.13477">
        <ele>6.3</ele>
        <time>2020-10-17T14:44:27.498Z</time>
      </trkpt>
      <trkpt lat="43.55687" lon="7.13486">
        <ele>6.5</ele>
        <time>2020-10-17T14:45:14.872Z</time>
      </trkpt>
      <trkpt lat="43.55743" lon="7.13479">
        <ele>6.2</ele>
        <time>2020-10-17T14:46:10.311Z</time>
      </trkpt>
      <trkpt lat="43.55791" lon="7.1348">
        <ele>9.1</ele>
        <time>2020-10-17T14:47:46.389Z</time>
      </trkpt>
      <trkpt lat="43.55891" lon="7.13545">
        <ele>7.5</ele>
        <time>2020-10-17T14:48:24.961Z</time>
      </trkpt>
      <trkpt lat="43.55973" lon="7.13604">
        <ele>8.9</ele>
        <time>2020-10-17T14:50:19.470Z</time>
      </trkpt>
      <trkpt lat="43.56041" lon="7.13657">
        <ele>11.7</ele>
        <time>2020-10-17T14:52:23.493Z</time>
      </trkpt>
      <trkpt lat="43.56086" lon="7.13694">
        <ele>12.4</ele>
        <time>2020-10-17T14:53:27.153Z</time>
      </trkpt>
      <trkpt lat="43.56131" lon="7.13771">
        <ele>11.4</ele>
        <time>2020-10-17T14:53:52.331Z</time>
      </trkpt>
      <trkpt lat="43.56208" lon="7.13832">
        <ele>12.3</ele>
        <time>2020-10-17T14:55:36.717Z</time>
      </trkpt>
      <trkpt lat="43.5628" lon="7.1387">
        <ele>8.1</ele>
        <time>2020-10-17T14:55:54.628Z</time>
      </trkpt>
      <trkpt lat="43.56338" lon="7.13858">
        <ele>10.1</ele>
        <time>2020-10-17T14:57:25.593Z</time>
      </trkpt>
      <trkpt lat="43.56543" lon="7.13732">
        <ele>17.1</ele>
        <time>2020-10-17T15:03:00.676Z</time>
      </trkpt>
    </trkseg>
  </trk>
</gpx>